Saint Pauls, North Carolina
Current Conditions -  °F | °C
As of 12:53 PM on Sunday 25 Jan 2015 (Local Time) from KFAY Reporting Station
Clear Clear  
Wind Chill: 55°   Ceiling: Unl
Heat Index: 55°   Visibility: 10mi
Dew Point: 32°   Wind: 8mph
Humidity: 42%   Direction: 190°S
Pressure: 29.91"   Gusts: NA
Location:  34.81°N, 78.97°W
Report Text: KFAY 251753Z AUTO 19007KT 10SM CLR 13/00 A2991 RMK AO2 SLP125 T01280000 10128 21011 58016
Loading
Personal Weather Stations






























Interactive Weather Map New forecast layout! Learn more

10-Day Weather Forecast

Advertisements
Track Severe Weather on mobile